Time;durP1;ratioP1;P1;durP2;ratioP2;P2;SDS_P1;SDS_P2;PMS_P1;PMS_P2;Temp;Humidity;BMP_temperature;BMP_pressure;BME280_temperature;BME280_humidity;BME280_pressure;Samples;Min_cycle;Max_cycle;Signal;HPM_P1;HPM_P2
2023/01/17 00:00:09;;;;;;;5.70;1.50;;;;;;;;;;5023508;28;20064;-74
2023/01/17 00:02:35;;;;;;;6.05;1.60;;;;;;;;;;5030834;28;20046;-74
2023/01/17 00:10:30;;;;;;;5.97;1.42;;;;;;;;;;5013472;28;20053;-74
2023/01/17 00:12:58;;;;;;;3.03;1.38;;;;;;;;;;5013276;28;20109;-74
2023/01/17 00:15:24;;;;;;;4.50;1.38;;;;;;;;;;5018377;28;20103;-74
2023/01/17 00:17:51;;;;;;;2.47;0.80;;;;;;;;;;5025322;28;20064;-74
2023/01/17 00:26:03;;;;;;;7.00;1.85;;;;;;;;;;5022060;28;20046;-74
2023/01/17 01:35:44;;;;;;;7.13;1.90;;;;;;;;;;5015724;28;20050;-74
2023/01/17 01:38:10;;;;;;;8.52;2.22;;;;;;;;;;5016172;28;20118;-75
2023/01/17 01:40:41;;;;;;;5.30;1.85;;;;;;;;;;5033752;28;20049;-74
2023/01/17 01:43:10;;;;;;;6.22;1.90;;;;;;;;;;5026287;28;20050;-74
2023/01/17 01:45:36;;;;;;;7.85;1.88;;;;;;;;;;5016677;28;20044;-73
2023/01/17 01:48:05;;;;;;;7.75;2.22;;;;;;;;;;5024802;28;20101;-74
2023/01/17 01:50:33;;;;;;;7.72;1.95;;;;;;;;;;5039805;28;20049;-74
2023/01/17 01:53:00;;;;;;;11.48;2.17;;;;;;;;;;5023786;28;20511;-73
2023/01/17 01:55:29;;;;;;;8.85;1.90;;;;;;;;;;5017713;28;20485;-74
2023/01/17 01:57:58;;;;;;;4.63;1.63;;;;;;;;;;5034871;28;20087;-74
2023/01/17 02:00:26;;;;;;;7.70;1.70;;;;;;;;;;5032551;28;20416;-74
2023/01/17 02:02:54;;;;;;;5.82;1.80;;;;;;;;;;5015417;28;20088;-74
2023/01/17 02:05:21;;;;;;;4.18;1.50;;;;;;;;;;5015374;28;20049;-74
2023/01/17 02:08:06;;;;;;;6.40;1.65;;;;;;;;;;5020967;28;20045;-74
2023/01/17 02:10:33;;;;;;;7.18;2.00;;;;;;;;;;5031873;28;20087;-75
2023/01/17 02:13:00;;;;;;;5.68;1.63;;;;;;;;;;5015618;28;20050;-75
2023/01/17 02:15:48;;;;;;;5.57;1.63;;;;;;;;;;5013762;28;20053;-75
2023/01/17 02:18:29;;;;;;;8.57;2.30;;;;;;;;;;5035055;28;20075;-75
2023/01/17 02:20:57;;;;;;;6.93;1.52;;;;;;;;;;5034471;28;20199;-74
2023/01/17 02:23:40;;;;;;;2.78;1.23;;;;;;;;;;5026141;28;20042;-74
2023/01/17 02:26:24;;;;;;;4.10;1.25;;;;;;;;;;5033987;28;20045;-74
2023/01/17 02:28:50;;;;;;;4.43;1.30;;;;;;;;;;5020986;28;20129;-74
2023/01/17 02:31:16;;;;;;;3.70;1.30;;;;;;;;;;5018321;28;20073;-74
2023/01/17 02:33:47;;;;;;;7.57;1.50;;;;;;;;;;5023008;28;20127;-74
2023/01/17 02:36:16;;;;;;;5.05;1.55;;;;;;;;;;5026684;28;20045;-74
2023/01/17 02:38:53;;;;;;;6.50;1.58;;;;;;;;;;5014402;28;20038;-75
2023/01/17 02:41:21;;;;;;;4.30;1.60;;;;;;;;;;5014120;28;20069;-75
2023/01/17 02:43:51;;;;;;;6.25;1.52;;;;;;;;;;5014205;28;20078;-75
2023/01/17 02:46:17;;;;;;;14.73;2.10;;;;;;;;;;5014081;28;20128;-75
2023/01/17 02:48:44;;;;;;;5.65;1.60;;;;;;;;;;5014048;28;20053;-75
2023/01/17 02:51:29;;;;;;;7.68;2.00;;;;;;;;;;5014619;28;20049;-75
2023/01/17 02:54:17;;;;;;;7.20;1.75;;;;;;;;;;5014616;28;20161;-75
2023/01/17 02:56:56;;;;;;;5.10;1.67;;;;;;;;;;5012137;28;20104;-75
2023/01/17 02:59:47;;;;;;;4.55;1.70;;;;;;;;;;5012415;28;20125;-75
2023/01/17 03:02:19;;;;;;;7.55;2.03;;;;;;;;;;5029931;28;20080;-74
2023/01/17 03:04:55;;;;;;;5.13;1.23;;;;;;;;;;5031122;28;20056;-74
2023/01/17 03:07:23;;;;;;;4.75;1.40;;;;;;;;;;5018783;28;20044;-74
2023/01/17 03:09:52;;;;;;;5.15;1.70;;;;;;;;;;5014093;28;20038;-74
2023/01/17 03:12:19;;;;;;;11.38;2.08;;;;;;;;;;5021258;28;20542;-74
2023/01/17 03:14:45;;;;;;;5.32;1.60;;;;;;;;;;5020860;28;20041;-74
2023/01/17 03:17:11;;;;;;;6.38;2.17;;;;;;;;;;5013702;28;20057;-74
2023/01/17 03:19:37;;;;;;;4.45;1.85;;;;;;;;;;5023657;28;20053;-74
2023/01/17 03:22:04;;;;;;;8.05;1.73;;;;;;;;;;5016805;28;20089;-74
2023/01/17 03:24:30;;;;;;;8.90;1.70;;;;;;;;;;5029506;28;20046;-74
2023/01/17 03:26:56;;;;;;;6.35;1.85;;;;;;;;;;5013573;28;20473;-74
2023/01/17 03:29:22;;;;;;;6.55;2.10;;;;;;;;;;5027856;28;20125;-74
2023/01/17 03:31:48;;;;;;;5.53;2.00;;;;;;;;;;5032044;28;20072;-74
2023/01/17 03:34:14;;;;;;;5.50;1.58;;;;;;;;;;5013915;28;20049;-74
2023/01/17 03:36:40;;;;;;;4.45;1.45;;;;;;;;;;5029168;28;20091;-74
2023/01/17 03:39:07;;;;;;;5.43;1.60;;;;;;;;;;5020696;28;20049;-74
2023/01/17 03:41:33;;;;;;;8.15;1.40;;;;;;;;;;5023886;28;20045;-74
2023/01/17 03:43:59;;;;;;;4.32;1.60;;;;;;;;;;5019232;28;20129;-75
2023/01/17 03:46:27;;;;;;;7.60;1.65;;;;;;;;;;5013158;28;20049;-75
2023/01/17 03:48:53;;;;;;;4.13;1.45;;;;;;;;;;5022994;28;20069;-75
2023/01/17 03:51:19;;;;;;;5.70;1.50;;;;;;;;;;5033390;28;20124;-75
2023/01/17 03:53:46;;;;;;;8.52;1.98;;;;;;;;;;5036193;28;20045;-75
2023/01/17 03:56:12;;;;;;;3.70;2.08;;;;;;;;;;5032615;28;20485;-75
2023/01/17 03:58:38;;;;;;;3.00;1.50;;;;;;;;;;5027432;28;20053;-75
2023/01/17 04:01:04;;;;;;;5.95;1.67;;;;;;;;;;5036524;28;20469;-75
2023/01/17 04:03:30;;;;;;;4.88;1.50;;;;;;;;;;5031914;28;20510;-75
2023/01/17 04:05:56;;;;;;;4.43;1.55;;;;;;;;;;5025007;28;20057;-75
2023/01/17 04:08:23;;;;;;;6.15;1.75;;;;;;;;;;5016095;28;20059;-75
2023/01/17 04:10:49;;;;;;;5.28;1.48;;;;;;;;;;5025045;28;20083;-75
2023/01/17 04:13:15;;;;;;;4.72;1.67;;;;;;;;;;5027096;28;20044;-75
2023/01/17 04:15:42;;;;;;;7.60;1.90;;;;;;;;;;5023837;28;20065;-75
2023/01/17 04:18:10;;;;;;;8.15;2.13;;;;;;;;;;5024092;28;20045;-75
2023/01/17 04:20:38;;;;;;;8.95;1.90;;;;;;;;;;5035201;28;20064;-75
2023/01/17 04:23:04;;;;;;;4.45;1.38;;;;;;;;;;5036110;28;20504;-75
2023/01/17 04:25:30;;;;;;;7.30;1.70;;;;;;;;;;5037122;28;20052;-75
2023/01/17 04:28:00;;;;;;;5.88;1.58;;;;;;;;;;5019330;28;20115;-75
2023/01/17 04:30:27;;;;;;;11.43;2.53;;;;;;;;;;5015199;28;20049;-75
2023/01/17 04:32:53;;;;;;;4.28;2.45;;;;;;;;;;5031451;28;20504;-76
2023/01/17 04:35:19;;;;;;;4.15;1.70;;;;;;;;;;5016687;28;20473;-76
2023/01/17 04:37:45;;;;;;;3.72;1.30;;;;;;;;;;5022520;28;20546;-76
2023/01/17 04:40:11;;;;;;;2.53;1.30;;;;;;;;;;5016116;28;20465;-76
2023/01/17 04:42:38;;;;;;;4.60;1.60;;;;;;;;;;5016317;28;20550;-76
2023/01/17 04:45:04;;;;;;;7.28;1.67;;;;;;;;;;5016521;28;20129;-76
2023/01/17 04:47:30;;;;;;;5.47;1.40;;;;;;;;;;5016351;28;20052;-76
2023/01/17 04:49:57;;;;;;;4.85;1.60;;;;;;;;;;5016428;28;20053;-76
2023/01/17 04:52:24;;;;;;;5.63;1.58;;;;;;;;;;5035206;28;20053;-76
2023/01/17 04:54:50;;;;;;;7.38;1.60;;;;;;;;;;5022487;28;20052;-76
2023/01/17 04:57:16;;;;;;;2.50;1.27;;;;;;;;;;5016922;28;20052;-76
2023/01/17 04:59:43;;;;;;;3.30;1.50;;;;;;;;;;5005524;28;20085;-76
2023/01/17 05:02:09;;;;;;;4.78;1.60;;;;;;;;;;5016621;28;20089;-76
2023/01/17 05:04:35;;;;;;;4.97;1.23;;;;;;;;;;5017719;28;20042;-76
2023/01/17 05:07:01;;;;;;;4.40;1.27;;;;;;;;;;5017322;28;20038;-76
2023/01/17 05:09:27;;;;;;;4.28;1.38;;;;;;;;;;5028252;28;20046;-76
2023/01/17 05:11:54;;;;;;;6.95;1.48;;;;;;;;;;5016973;28;20069;-76
2023/01/17 05:14:20;;;;;;;5.65;1.80;;;;;;;;;;5035314;28;20053;-76
2023/01/17 05:16:47;;;;;;;4.90;1.58;;;;;;;;;;5034716;28;20041;-76
2023/01/17 05:19:13;;;;;;;6.18;1.90;;;;;;;;;;5034309;28;20147;-76
2023/01/17 05:21:39;;;;;;;6.30;1.80;;;;;;;;;;5047481;28;20042;-76
2023/01/17 05:24:05;;;;;;;6.15;1.85;;;;;;;;;;5015195;28;20053;-76
2023/01/17 05:26:31;;;;;;;4.15;1.45;;;;;;;;;;5017100;28;20042;-76
2023/01/17 05:28:57;;;;;;;4.93;1.50;;;;;;;;;;5034969;28;20451;-76
2023/01/17 05:31:23;;;;;;;4.40;1.58;;;;;;;;;;5025478;28;20046;-76
2023/01/17 05:33:49;;;;;;;4.68;2.00;;;;;;;;;;5015082;28;20516;-76
2023/01/17 05:36:15;;;;;;;6.18;1.85;;;;;;;;;;5030667;28;20046;-76
2023/01/17 05:38:41;;;;;;;3.83;1.30;;;;;;;;;;5015381;28;20046;-76
2023/01/17 05:41:07;;;;;;;6.78;2.00;;;;;;;;;;5031116;28;20057;-76
2023/01/17 05:43:33;;;;;;;2.97;1.33;;;;;;;;;;5034924;28;20037;-76
2023/01/17 05:45:59;;;;;;;4.65;1.55;;;;;;;;;;5034591;28;20066;-76
2023/01/17 05:48:25;;;;;;;6.70;1.60;;;;;;;;;;5034669;28;20103;-76
2023/01/17 05:50:51;;;;;;;4.05;1.48;;;;;;;;;;5029969;28;20049;-75
2023/01/17 05:53:17;;;;;;;2.13;1.20;;;;;;;;;;5020717;28;20079;-75
2023/01/17 05:55:44;;;;;;;4.35;1.45;;;;;;;;;;5033568;28;20044;-76
2023/01/17 05:58:14;;;;;;;3.20;1.25;;;;;;;;;;5033497;28;20046;-76
2023/01/17 06:00:41;;;;;;;2.92;1.40;;;;;;;;;;5033348;28;20046;-76
2023/01/17 06:03:07;;;;;;;1.80;1.02;;;;;;;;;;5033958;28;20054;-75
2023/01/17 06:05:33;;;;;;;2.97;1.50;;;;;;;;;;5033946;28;20373;-75
2023/01/17 06:07:59;;;;;;;6.07;1.40;;;;;;;;;;5035251;28;20037;-75
2023/01/17 06:10:25;;;;;;;4.47;1.10;;;;;;;;;;5025503;28;20144;-75
2023/01/17 06:13:00;;;;;;;3.22;1.67;;;;;;;;;;5014748;28;20120;-75
2023/01/17 06:15:26;;;;;;;1.67;1.00;;;;;;;;;;5016781;28;20511;-75
2023/01/17 06:17:52;;;;;;;1.05;0.80;;;;;;;;;;5033499;28;20053;-76
2023/01/17 06:20:18;;;;;;;2.65;1.27;;;;;;;;;;5034590;28;20049;-76
2023/01/17 06:22:44;;;;;;;3.28;1.13;;;;;;;;;;5032559;28;20042;-76
2023/01/17 06:25:10;;;;;;;4.13;1.63;;;;;;;;;;5034214;28;20045;-76
2023/01/17 06:27:36;;;;;;;4.28;1.10;;;;;;;;;;5019077;28;20099;-76
2023/01/17 06:30:02;;;;;;;2.50;1.20;;;;;;;;;;5029777;28;20085;-76
2023/01/17 06:32:28;;;;;;;1.85;1.13;;;;;;;;;;5034370;28;20045;-76
2023/01/17 06:34:54;;;;;;;5.25;1.48;;;;;;;;;;5017309;28;20478;-76
2023/01/17 06:37:20;;;;;;;4.45;1.45;;;;;;;;;;5014566;28;20415;-76
2023/01/17 06:39:46;;;;;;;2.90;1.25;;;;;;;;;;5013368;28;20428;-77
2023/01/17 06:42:12;;;;;;;4.00;1.40;;;;;;;;;;5024521;28;20056;-78
2023/01/17 06:44:38;;;;;;;2.33;1.20;;;;;;;;;;5034039;28;20042;-77
2023/01/17 06:47:04;;;;;;;5.40;1.60;;;;;;;;;;5026307;28;20045;-76
2023/01/17 06:49:30;;;;;;;3.42;1.20;;;;;;;;;;5028938;28;20484;-76
2023/01/17 06:51:56;;;;;;;4.72;1.42;;;;;;;;;;5029027;28;20049;-76
2023/01/17 06:54:22;;;;;;;5.60;1.77;;;;;;;;;;5014006;28;20045;-76
2023/01/17 06:56:48;;;;;;;6.55;1.80;;;;;;;;;;5022913;28;20041;-76
2023/01/17 06:59:14;;;;;;;2.50;1.23;;;;;;;;;;5021553;28;20476;-76
2023/01/17 07:01:40;;;;;;;1.75;1.27;;;;;;;;;;5012442;28;20045;-76
2023/01/17 07:04:07;;;;;;;2.15;1.00;;;;;;;;;;5012450;28;20081;-76
2023/01/17 07:06:35;;;;;;;3.70;1.00;;;;;;;;;;5013688;28;20053;-76
2023/01/17 07:09:02;;;;;;;0.85;0.70;;;;;;;;;;5025493;28;20038;-76
2023/01/17 07:11:28;;;;;;;0.60;0.60;;;;;;;;;;5022331;28;20049;-76
2023/01/17 07:13:54;;;;;;;1.27;0.73;;;;;;;;;;5045221;28;20077;-76
2023/01/17 07:16:20;;;;;;;1.42;1.05;;;;;;;;;;5012153;28;20050;-76
2023/01/17 07:18:47;;;;;;;2.35;1.23;;;;;;;;;;5011994;28;20072;-76
2023/01/17 07:21:13;;;;;;;5.03;1.30;;;;;;;;;;5013613;28;20420;-76
2023/01/17 07:23:39;;;;;;;4.47;1.50;;;;;;;;;;5012999;28;20381;-76
2023/01/17 07:26:05;;;;;;;4.70;1.90;;;;;;;;;;5013350;28;20048;-76
2023/01/17 07:28:32;;;;;;;5.32;1.70;;;;;;;;;;5032219;28;20056;-76
2023/01/17 07:30:58;;;;;;;6.55;2.10;;;;;;;;;;5039861;28;20049;-76
2023/01/17 07:33:24;;;;;;;5.63;2.25;;;;;;;;;;5029639;28;20054;-76
2023/01/17 07:35:50;;;;;;;2.03;1.45;;;;;;;;;;5019064;28;20056;-76
2023/01/17 07:38:17;;;;;;;4.03;2.00;;;;;;;;;;5027003;28;20080;-79
2023/01/17 07:40:43;;;;;;;2.53;1.30;;;;;;;;;;5018794;28;20072;-76
2023/01/17 07:43:13;;;;;;;3.30;1.60;;;;;;;;;;5029938;28;20045;-76
2023/01/17 07:45:50;;;;;;;4.22;1.52;;;;;;;;;;5021970;28;22697;-76
2023/01/17 07:48:20;;;;;;;2.88;1.38;;;;;;;;;;5024502;28;20046;-76
2023/01/17 07:50:57;;;;;;;2.92;1.60;;;;;;;;;;5030897;28;20422;-76
2023/01/17 07:53:24;;;;;;;5.03;1.63;;;;;;;;;;5024664;28;20084;-76
2023/01/17 07:55:50;;;;;;;4.35;2.83;;;;;;;;;;5020764;28;20042;-76
2023/01/17 07:58:16;;;;;;;3.47;1.50;;;;;;;;;;5020842;28;20437;-76
2023/01/17 08:00:43;;;;;;;5.22;1.60;;;;;;;;;;5027885;28;20037;-76
2023/01/17 08:03:12;;;;;;;5.30;1.50;;;;;;;;;;5035488;28;20064;-75
2023/01/17 08:05:39;;;;;;;4.63;1.63;;;;;;;;;;5049327;28;20073;-81
2023/01/17 08:08:05;;;;;;;3.88;1.50;;;;;;;;;;5033185;28;20046;-81
2023/01/17 08:10:31;;;;;;;9.57;1.75;;;;;;;;;;5034709;28;20092;-74
2023/01/17 08:12:57;;;;;;;3.92;1.77;;;;;;;;;;5035591;28;20099;-76
2023/01/17 08:15:25;;;;;;;4.68;1.63;;;;;;;;;;5022973;28;20045;-81
2023/01/17 08:17:56;;;;;;;2.00;1.30;;;;;;;;;;5025132;28;20058;-75
2023/01/17 08:20:22;;;;;;;4.45;1.60;;;;;;;;;;5027750;28;20096;-81
2023/01/17 08:22:51;;;;;;;3.35;1.40;;;;;;;;;;5019945;28;20072;-82
2023/01/17 08:25:17;;;;;;;4.82;1.63;;;;;;;;;;5026891;28;20483;-76
2023/01/17 08:27:43;;;;;;;3.53;1.60;;;;;;;;;;5035858;28;20053;-76
2023/01/17 08:30:09;;;;;;;4.13;1.70;;;;;;;;;;5027352;28;20041;-76
2023/01/17 08:32:39;;;;;;;3.40;1.80;;;;;;;;;;5021876;28;20033;-76
2023/01/17 08:35:05;;;;;;;6.88;2.05;;;;;;;;;;5028039;28;20038;-76
2023/01/17 08:37:31;;;;;;;6.68;1.88;;;;;;;;;;5029489;28;20099;-76
2023/01/17 08:39:58;;;;;;;5.78;1.55;;;;;;;;;;5023056;28;20052;-76
2023/01/17 08:42:24;;;;;;;4.55;1.63;;;;;;;;;;5020049;28;20046;-76
2023/01/17 08:44:50;;;;;;;6.47;1.70;;;;;;;;;;5021927;28;20038;-76
2023/01/17 08:47:16;;;;;;;6.07;1.20;;;;;;;;;;5019031;28;20050;-76
2023/01/17 08:49:42;;;;;;;2.80;1.50;;;;;;;;;;5024708;28;20045;-76
2023/01/17 08:52:11;;;;;;;3.45;1.60;;;;;;;;;;5030928;28;20061;-76
2023/01/17 08:54:37;;;;;;;2.90;1.20;;;;;;;;;;5029163;28;20423;-76
2023/01/17 08:57:03;;;;;;;2.95;1.35;;;;;;;;;;5017570;28;20515;-76
2023/01/17 08:59:30;;;;;;;4.90;2.33;;;;;;;;;;5027467;28;20052;-76
2023/01/17 09:01:57;;;;;;;2.08;0.85;;;;;;;;;;5020626;28;20126;-76
2023/01/17 09:04:23;;;;;;;0.70;0.70;;;;;;;;;;5016888;28;20108;-76
2023/01/17 09:06:49;;;;;;;0.57;0.57;;;;;;;;;;5027645;28;20053;-77
2023/01/17 09:09:16;;;;;;;0.57;0.57;;;;;;;;;;5025526;28;20040;-76
2023/01/17 09:11:42;;;;;;;0.35;0.35;;;;;;;;;;5025159;28;20143;-76
2023/01/17 09:14:10;;;;;;;0.60;0.60;;;;;;;;;;5015476;28;20076;-76
2023/01/17 09:16:36;;;;;;;0.93;0.90;;;;;;;;;;5017322;28;20149;-76
2023/01/17 09:19:02;;;;;;;0.60;0.60;;;;;;;;;;5021580;28;20500;-76
2023/01/17 09:21:28;;;;;;;1.02;1.00;;;;;;;;;;5025730;28;20407;-76
2023/01/17 09:23:55;;;;;;;1.42;1.33;;;;;;;;;;5023541;28;20045;-76
2023/01/17 09:26:21;;;;;;;1.30;1.20;;;;;;;;;;5019061;28;20048;-76
2023/01/17 09:28:47;;;;;;;0.93;0.93;;;;;;;;;;5016051;28;20046;-76
2023/01/17 09:31:13;;;;;;;1.15;1.05;;;;;;;;;;5025637;28;20064;-76
2023/01/17 09:33:41;;;;;;;1.17;1.10;;;;;;;;;;5025148;28;20045;-76
2023/01/17 09:36:07;;;;;;;7.30;6.70;;;;;;;;;;5032640;28;20120;-76
2023/01/17 09:38:34;;;;;;;7.10;6.57;;;;;;;;;;5035112;28;20172;-76
2023/01/17 09:41:00;;;;;;;5.25;4.90;;;;;;;;;;5028346;28;20042;-77
2023/01/17 09:43:42;;;;;;;1.38;1.30;;;;;;;;;;5020290;28;20034;-76
2023/01/17 09:46:14;;;;;;;2.15;0.95;;;;;;;;;;5031900;28;20053;-76
2023/01/17 09:48:40;;;;;;;1.27;1.17;;;;;;;;;;5028421;28;20036;-76
2023/01/17 09:51:12;;;;;;;2.67;1.50;;;;;;;;;;5019796;28;20169;-76
2023/01/17 09:53:40;;;;;;;3.58;1.48;;;;;;;;;;5020400;28;20041;-76
2023/01/17 09:56:06;;;;;;;5.35;1.40;;;;;;;;;;5016704;28;20135;-76
2023/01/17 09:58:32;;;;;;;2.67;1.50;;;;;;;;;;5017108;28;20176;-76
2023/01/17 10:00:58;;;;;;;2.50;1.33;;;;;;;;;;5022933;28;20507;-76
2023/01/17 10:03:43;;;;;;;3.45;1.23;;;;;;;;;;5044929;28;20050;-76
2023/01/17 10:06:09;;;;;;;2.80;1.30;;;;;;;;;;5030209;28;20079;-80
2023/01/17 10:08:54;;;;;;;1.38;1.10;;;;;;;;;;5033060;28;20134;-80
2023/01/17 10:11:20;;;;;;;2.70;1.45;;;;;;;;;;5018045;28;20050;-76
2023/01/17 10:13:49;;;;;;;2.13;1.30;;;;;;;;;;5015062;28;20056;-81
2023/01/17 10:16:15;;;;;;;2.05;1.48;;;;;;;;;;5013675;28;20045;-76
2023/01/17 10:18:55;;;;;;;5.30;1.75;;;;;;;;;;5027784;28;20120;-75
2023/01/17 10:21:26;;;;;;;4.13;1.67;;;;;;;;;;5026532;28;20488;-76
2023/01/17 10:24:18;;;;;;;3.17;1.70;;;;;;;;;;5034274;28;20049;-77
2023/01/17 10:26:46;;;;;;;3.45;2.20;;;;;;;;;;5030683;28;20053;-76
2023/01/17 10:29:15;;;;;;;2.28;1.77;;;;;;;;;;5033957;28;20118;-76
2023/01/17 10:31:44;;;;;;;2.95;1.75;;;;;;;;;;5034081;28;20488;-76
2023/01/17 10:34:16;;;;;;;3.28;1.70;;;;;;;;;;5034639;28;20053;-76
2023/01/17 10:36:44;;;;;;;2.85;1.75;;;;;;;;;;5034056;28;20049;-77
2023/01/17 10:39:20;;;;;;;3.15;1.63;;;;;;;;;;5024819;28;20124;-75
2023/01/17 10:41:54;;;;;;;2.72;1.50;;;;;;;;;;5012711;28;20042;-76
2023/01/17 10:44:39;;;;;;;4.25;2.17;;;;;;;;;;5027396;28;20504;-76
2023/01/17 10:47:07;;;;;;;5.57;2.20;;;;;;;;;;5030045;28;20120;-76
2023/01/17 10:49:33;;;;;;;4.43;1.70;;;;;;;;;;5029346;28;20045;-76
2023/01/17 10:52:07;;;;;;;6.10;2.15;;;;;;;;;;5013102;28;20381;-76
2023/01/17 10:54:52;;;;;;;1.80;1.50;;;;;;;;;;4996352;28;20061;-76
2023/01/17 10:57:20;;;;;;;2.88;1.50;;;;;;;;;;5026377;28;20059;-77
2023/01/17 10:59:46;;;;;;;1.80;1.20;;;;;;;;;;5020642;28;20045;-77
2023/01/17 11:02:19;;;;;;;2.58;1.40;;;;;;;;;;5020431;28;20041;-76
2023/01/17 11:04:47;;;;;;;2.70;1.40;;;;;;;;;;5014575;28;20045;-77
2023/01/17 11:07:17;;;;;;;4.65;1.40;;;;;;;;;;5015749;28;20497;-77
2023/01/17 11:09:48;;;;;;;2.50;1.90;;;;;;;;;;5032932;28;20427;-77
2023/01/17 11:12:26;;;;;;;2.10;1.90;;;;;;;;;;5027425;28;20050;-75
2023/01/17 11:14:57;;;;;;;2.60;1.50;;;;;;;;;;5022839;28;20125;-75
2023/01/17 11:17:24;;;;;;;2.25;1.50;;;;;;;;;;5016154;28;20053;-76
2023/01/17 11:19:50;;;;;;;1.63;1.20;;;;;;;;;;5013091;28;20046;-75
2023/01/17 11:22:17;;;;;;;3.58;1.23;;;;;;;;;;5014599;28;20038;-76
2023/01/17 11:24:52;;;;;;;1.90;1.45;;;;;;;;;;5013626;28;20081;-76
2023/01/17 11:27:29;;;;;;;3.30;1.33;;;;;;;;;;5013666;28;20050;-76
2023/01/17 11:30:01;;;;;;;2.72;1.60;;;;;;;;;;5018736;28;20115;-76
2023/01/17 11:32:30;;;;;;;6.15;1.45;;;;;;;;;;5019328;28;20404;-76
2023/01/17 11:35:06;;;;;;;4.45;1.60;;;;;;;;;;5014327;28;20050;-75
2023/01/17 11:37:32;;;;;;;2.40;1.42;;;;;;;;;;5010743;28;20041;-80
2023/01/17 11:40:08;;;;;;;6.80;2.38;;;;;;;;;;5031645;28;20124;-77
2023/01/17 11:42:36;;;;;;;6.57;2.22;;;;;;;;;;5013247;28;20045;-77
2023/01/17 11:45:20;;;;;;;4.90;1.58;;;;;;;;;;5020915;28;20033;-76
2023/01/17 11:47:46;;;;;;;4.63;1.73;;;;;;;;;;5021781;28;20041;-81
2023/01/17 11:50:25;;;;;;;3.15;1.77;;;;;;;;;;5016195;28;20125;-77
2023/01/17 11:52:51;;;;;;;3.92;1.70;;;;;;;;;;5013444;28;20041;-77
2023/01/17 11:55:21;;;;;;;4.78;2.30;;;;;;;;;;5013717;28;20046;-77
2023/01/17 11:57:49;;;;;;;4.30;2.10;;;;;;;;;;5028770;28;20037;-76
2023/01/17 12:00:21;;;;;;;3.63;1.67;;;;;;;;;;5030943;28;20372;-75
2023/01/17 12:02:58;;;;;;;4.68;2.13;;;;;;;;;;5027340;28;20037;-75
2023/01/17 12:05:42;;;;;;;4.43;1.58;;;;;;;;;;5025312;28;20049;-75
2023/01/17 12:08:17;;;;;;;3.30;1.77;;;;;;;;;;5027181;28;20050;-75
2023/01/17 12:10:43;;;;;;;6.22;2.17;;;;;;;;;;5027267;28;20183;-75
2023/01/17 12:16:38;;;;;;;2.80;1.60;;;;;;;;;;5015905;28;20057;-75
2023/01/17 12:19:17;;;;;;;1.50;1.40;;;;;;;;;;5017288;28;20053;-76
2023/01/17 12:21:50;;;;;;;3.33;1.40;;;;;;;;;;5016500;28;20493;-75
2023/01/17 12:24:15;;;;;;;3.55;1.38;;;;;;;;;;5016986;28;20046;-75
2023/01/17 12:26:48;;;;;;;3.40;1.30;;;;;;;;;;5042082;28;20050;-76
2023/01/17 12:29:33;;;;;;;4.55;1.45;;;;;;;;;;5021872;28;20120;-76
2023/01/17 12:32:25;;;;;;;3.55;1.27;;;;;;;;;;5029898;28;20080;-76
2023/01/17 12:34:54;;;;;;;2.20;1.35;;;;;;;;;;4986708;28;20050;-76
2023/01/17 12:37:33;;;;;;;3.60;1.48;;;;;;;;;;5024405;28;20080;-76
2023/01/17 12:40:06;;;;;;;5.38;1.48;;;;;;;;;;5032667;28;20113;-76
2023/01/17 12:42:37;;;;;;;4.05;1.23;;;;;;;;;;5040294;28;20049;-76
2023/01/17 12:45:06;;;;;;;2.97;1.40;;;;;;;;;;5026367;28;20481;-76
2023/01/17 12:47:38;;;;;;;3.97;1.48;;;;;;;;;;5026362;28;20330;-75
2023/01/17 12:50:09;;;;;;;3.75;1.40;;;;;;;;;;5033301;28;20476;-75
2023/01/17 12:52:58;;;;;;;2.45;1.10;;;;;;;;;;5027758;28;20049;-76
2023/01/17 12:55:41;;;;;;;6.10;2.28;;;;;;;;;;5028859;28;20493;-76
2023/01/17 12:58:12;;;;;;;2.50;1.42;;;;;;;;;;5032916;28;20045;-76
2023/01/17 13:00:39;;;;;;;3.38;1.50;;;;;;;;;;5018579;28;20073;-76
2023/01/17 13:03:25;;;;;;;3.95;1.80;;;;;;;;;;5027815;28;20435;-75
2023/01/17 13:05:51;;;;;;;;;;;;;;;;;;5018236;28;20050;-75
2023/01/17 13:08:24;;;;;;;3.93;1.53;;;;;;;;;;5015941;28;19921;-75
2023/01/17 13:11:08;;;;;;;3.08;1.40;;;;;;;;;;5014503;28;20496;-76
2023/01/17 13:13:35;;;;;;;2.45;1.38;;;;;;;;;;5026737;28;20060;-76
2023/01/17 13:16:14;;;;;;;1.55;1.15;;;;;;;;;;5028945;28;20124;-76
2023/01/17 13:18:43;;;;;;;4.00;1.40;;;;;;;;;;5024031;28;20481;-76
2023/01/17 13:21:26;;;;;;;3.60;1.58;;;;;;;;;;5018687;28;20045;-76
2023/01/17 13:24:00;;;;;;;3.17;1.50;;;;;;;;;;5030839;28;20116;-76
2023/01/17 13:26:45;;;;;;;5.35;1.38;;;;;;;;;;5028754;28;20369;-76
2023/01/17 13:29:20;;;;;;;2.20;1.40;;;;;;;;;;5015036;28;20172;-76
2023/01/17 13:31:56;;;;;;;2.43;1.43;;;;;;;;;;5017229;28;20076;-76
2023/01/17 13:34:45;;;;;;;3.53;1.63;;;;;;;;;;5034087;28;20106;-76
2023/01/17 13:37:30;;;;;;;3.25;1.20;;;;;;;;;;4957672;28;20066;-76
2023/01/17 13:39:59;;;;;;;2.78;1.27;;;;;;;;;;4971695;28;20047;-77
2023/01/17 13:42:25;;;;;;;4.32;1.60;;;;;;;;;;4955254;29;20087;-80
2023/01/17 13:44:51;;;;;;;3.13;1.30;;;;;;;;;;4957195;28;20432;-76
2023/01/17 13:47:17;;;;;;;2.90;1.27;;;;;;;;;;4958169;28;20042;-76
2023/01/17 13:49:48;;;;;;;3.38;1.55;;;;;;;;;;4955565;28;20050;-77
2023/01/17 13:52:21;;;;;;;2.58;1.30;;;;;;;;;;4970748;28;20407;-76
2023/01/17 13:54:54;;;;;;;2.35;1.15;;;;;;;;;;4970242;28;20058;-76
2023/01/17 13:59:50;;;;;;;4.88;1.70;;;;;;;;;;4963766;28;20046;-76
2023/01/17 14:02:31;;;;;;;4.25;1.33;;;;;;;;;;4957015;28;20552;-76
2023/01/17 14:05:08;;;;;;;4.28;1.73;;;;;;;;;;4957449;28;20105;-76
2023/01/17 14:07:46;;;;;;;3.08;1.08;;;;;;;;;;4973209;28;20081;-76
2023/01/17 14:10:29;;;;;;;2.35;1.60;;;;;;;;;;4957650;28;20062;-77
2023/01/17 14:12:56;;;;;;;3.60;1.75;;;;;;;;;;4958176;28;20070;-80
2023/01/17 14:15:25;;;;;;;3.50;1.27;;;;;;;;;;5013753;28;20104;-77
2023/01/17 14:17:55;;;;;;;4.63;1.73;;;;;;;;;;5020922;28;20095;-76
2023/01/17 14:20:24;;;;;;;2.58;1.33;;;;;;;;;;5034898;28;20053;-76
2023/01/17 14:22:53;;;;;;;5.85;1.65;;;;;;;;;;5027127;28;20045;-76
2023/01/17 14:25:20;;;;;;;3.00;1.52;;;;;;;;;;5028332;28;20073;-76
2023/01/17 14:27:55;;;;;;;2.80;1.25;;;;;;;;;;5028782;28;20495;-76
2023/01/17 14:30:26;;;;;;;2.00;1.42;;;;;;;;;;5029040;28;20046;-77
2023/01/17 14:32:59;;;;;;;2.00;1.27;;;;;;;;;;5040828;28;20044;-77
2023/01/17 14:35:29;;;;;;;3.30;1.30;;;;;;;;;;5030180;28;20049;-76
2023/01/17 14:37:56;;;;;;;2.00;1.33;;;;;;;;;;5032055;28;20037;-76
2023/01/17 14:40:29;;;;;;;4.00;1.40;;;;;;;;;;5032622;28;20116;-77
2023/01/17 14:43:11;;;;;;;5.88;1.65;;;;;;;;;;5021721;28;20045;-77
2023/01/17 14:45:38;;;;;;;5.10;1.50;;;;;;;;;;5016981;28;20056;-77
2023/01/17 14:48:05;;;;;;;3.00;1.50;;;;;;;;;;5045165;28;20384;-78
2023/01/17 14:50:38;;;;;;;6.82;2.40;;;;;;;;;;5023398;28;20503;-76
2023/01/17 14:53:07;;;;;;;3.38;1.92;;;;;;;;;;5031393;28;20048;-76
2023/01/17 14:55:36;;;;;;;7.30;2.33;;;;;;;;;;5024233;28;20045;-80
2023/01/17 14:58:03;;;;;;;5.38;2.10;;;;;;;;;;5050721;28;20105;-79
2023/01/17 15:00:29;;;;;;;5.53;2.17;;;;;;;;;;5033003;28;20056;-79
2023/01/17 15:03:01;;;;;;;1.50;1.40;;;;;;;;;;5045618;28;20045;-77
2023/01/17 15:05:29;;;;;;;3.85;1.88;;;;;;;;;;5033793;28;20046;-76
2023/01/17 15:07:56;;;;;;;5.05;3.00;;;;;;;;;;5033655;28;20112;-76
2023/01/17 15:10:46;;;;;;;5.05;2.00;;;;;;;;;;5034749;28;20096;-76
2023/01/17 15:13:16;;;;;;;4.30;3.10;;;;;;;;;;5026867;28;20064;-77
2023/01/17 15:15:42;;;;;;;2.15;1.70;;;;;;;;;;5032478;28;20111;-77
2023/01/17 15:18:15;;;;;;;3.42;1.70;;;;;;;;;;5034025;28;20115;-77
2023/01/17 15:20:44;;;;;;;5.15;2.05;;;;;;;;;;5033546;28;20042;-76
2023/01/17 15:23:18;;;;;;;4.88;1.80;;;;;;;;;;5033819;28;20098;-77
2023/01/17 15:25:46;;;;;;;5.35;1.73;;;;;;;;;;5019674;28;20049;-76
2023/01/17 15:28:12;;;;;;;2.65;1.50;;;;;;;;;;5014995;28;20038;-79
2023/01/17 15:30:58;;;;;;;2.58;1.60;;;;;;;;;;5032584;28;20099;-76
2023/01/17 15:33:24;;;;;;;7.75;1.80;;;;;;;;;;5034313;28;20042;-77
2023/01/17 15:35:58;;;;;;;6.95;2.78;;;;;;;;;;5016717;28;20370;-77
2023/01/17 15:38:25;;;;;;;3.63;1.80;;;;;;;;;;5026241;28;20055;-77
2023/01/17 15:40:51;;;;;;;2.63;1.60;;;;;;;;;;5033057;28;20049;-77
2023/01/17 15:43:20;;;;;;;5.43;1.80;;;;;;;;;;5033526;28;20081;-77
2023/01/17 15:45:55;;;;;;;7.38;1.65;;;;;;;;;;5033514;28;20042;-77
2023/01/17 15:48:42;;;;;;;6.72;2.13;;;;;;;;;;5034228;28;20045;-77
2023/01/17 15:51:10;;;;;;;5.63;1.80;;;;;;;;;;5052830;28;20049;-77
2023/01/17 15:53:38;;;;;;;4.72;2.22;;;;;;;;;;5037480;28;20050;-77
2023/01/17 15:56:23;;;;;;;6.18;2.10;;;;;;;;;;5037430;28;20124;-77
2023/01/17 15:58:49;;;;;;;4.32;2.22;;;;;;;;;;5037197;28;20079;-76
2023/01/17 16:01:16;;;;;;;5.50;2.30;;;;;;;;;;5037254;28;20172;-76
2023/01/17 16:03:53;;;;;;;5.53;2.33;;;;;;;;;;5037152;28;20046;-76
2023/01/17 16:06:48;;;;;;;4.32;2.30;;;;;;;;;;5037108;28;20584;-77
2023/01/17 16:09:19;;;;;;;3.72;1.88;;;;;;;;;;5020165;28;20050;-77
2023/01/17 16:11:45;;;;;;;3.35;1.88;;;;;;;;;;5026388;28;20061;-77
2023/01/17 16:14:11;;;;;;;6.95;2.22;;;;;;;;;;5017073;28;20045;-77
2023/01/17 16:16:37;;;;;;;5.85;2.80;;;;;;;;;;5016751;28;20484;-77
2023/01/17 16:19:04;;;;;;;6.07;2.47;;;;;;;;;;5016552;28;20054;-76
2023/01/17 16:21:30;;;;;;;9.30;2.30;;;;;;;;;;5016913;28;20054;-76